createdAt,value
2019-01-30T00:00:35.218Z,9.43
2019-01-30T00:03:04.018Z,12.80
2019-01-30T00:05:32.682Z,10.10
2019-01-30T00:08:01.229Z,12.77
2019-01-30T00:10:30.073Z,11.23
2019-01-30T00:12:58.706Z,14.57
2019-01-30T00:15:27.400Z,13.27
2019-01-30T00:17:55.964Z,13.57
2019-01-30T00:20:24.452Z,12.63
2019-01-30T00:22:52.968Z,18.67
2019-01-30T00:25:23.899Z,14.57
2019-01-30T00:27:51.902Z,20.13
2019-01-30T00:30:25.575Z,15.93
2019-01-30T00:32:54.150Z,13.50
2019-01-30T00:35:22.717Z,15.00
2019-01-30T00:37:51.368Z,18.47
2019-01-30T00:40:21.845Z,14.27
2019-01-30T00:42:50.551Z,17.17
2019-01-30T00:45:21.216Z,13.23
2019-01-30T00:47:50.085Z,17.90
2019-01-30T00:50:21.354Z,21.37
2019-01-30T00:52:49.938Z,17.33
2019-01-30T00:55:18.505Z,18.53
2019-01-30T00:57:47.149Z,17.10
2019-01-30T01:00:27.090Z,16.17
2019-01-30T01:02:55.917Z,14.63
2019-01-30T01:05:24.629Z,16.87
2019-01-30T01:07:53.580Z,17.60
2019-01-30T01:10:23.733Z,14.03
2019-01-30T01:12:52.386Z,17.57
2019-01-30T01:15:20.876Z,17.07
2019-01-30T01:17:49.469Z,18.30
2019-01-30T01:20:19.906Z,17.30
2019-01-30T01:22:48.620Z,16.30
2019-01-30T01:25:17.963Z,19.03
2019-01-30T01:27:46.695Z,16.50
2019-01-30T01:30:25.226Z,18.43
2019-01-30T01:32:50.902Z,15.07
2019-01-30T01:35:19.641Z,15.50
2019-01-30T01:37:48.162Z,16.00
2019-01-30T01:40:17.111Z,15.87
2019-01-30T01:42:45.689Z,15.57
2019-01-30T01:45:19.149Z,15.73
2019-01-30T01:47:47.807Z,15.00
2019-01-30T01:50:18.410Z,17.87
2019-01-30T01:52:47.067Z,14.10
2019-01-30T01:55:15.765Z,16.57
2019-01-30T01:57:44.345Z,16.47
2019-01-30T02:00:16.048Z,15.07
2019-01-30T02:02:44.713Z,14.40
2019-01-30T02:05:15.646Z,15.70
2019-01-30T02:07:44.369Z,14.57
2019-01-30T02:10:17.829Z,15.03
2019-01-30T02:12:46.483Z,17.93
2019-01-30T02:15:18.414Z,16.83
2019-01-30T02:17:47.057Z,15.97
2019-01-30T02:20:20.714Z,16.07
2019-01-30T02:22:49.311Z,16.43
2019-01-30T02:25:17.876Z,14.10
2019-01-30T02:27:46.529Z,17.87
2019-01-30T02:30:24.180Z,15.03
2019-01-30T02:32:52.933Z,13.37
2019-01-30T02:35:22.028Z,14.50
2019-01-30T02:37:50.746Z,13.63
2019-01-30T02:40:22.355Z,15.73
2019-01-30T02:42:50.941Z,14.77
2019-01-30T02:45:25.230Z,16.93
2019-01-30T02:47:53.969Z,11.73
2019-01-30T02:50:22.673Z,15.77
2019-01-30T02:52:51.326Z,15.77
2019-01-30T02:55:20.533Z,14.10
2019-01-30T02:57:49.391Z,14.77
2019-01-30T03:00:28.754Z,14.67
2019-01-30T03:02:57.404Z,14.13
2019-01-30T03:05:26.124Z,15.70
2019-01-30T03:07:54.779Z,13.53
2019-01-30T03:10:23.814Z,14.97
2019-01-30T03:12:52.535Z,17.60
2019-01-30T03:15:21.640Z,13.43
2019-01-30T03:17:50.221Z,14.87
2019-01-30T03:20:21.053Z,14.87
2019-01-30T03:22:49.682Z,14.00
2019-01-30T03:25:20.386Z,14.60
2019-01-30T03:27:48.900Z,14.70
2019-01-30T03:30:19.524Z,16.40
2019-01-30T03:32:48.308Z,17.97
2019-01-30T03:35:16.946Z,14.47
2019-01-30T03:37:45.464Z,15.30
2019-01-30T03:40:16.627Z,15.47
2019-01-30T03:42:45.293Z,14.37
2019-01-30T03:45:19.692Z,15.67
2019-01-30T03:47:48.210Z,16.27
2019-01-30T03:50:16.856Z,13.70
2019-01-30T03:52:45.510Z,13.57
2019-01-30T03:55:16.495Z,14.33
2019-01-30T03:57:45.076Z,15.77
2019-01-30T04:00:16.406Z,15.10
2019-01-30T04:02:45.053Z,11.87
2019-01-30T04:05:13.730Z,14.60
2019-01-30T04:07:42.314Z,14.40
2019-01-30T04:10:14.025Z,13.07
2019-01-30T04:12:42.610Z,14.00
2019-01-30T04:15:11.186Z,17.20
2019-01-30T04:17:39.762Z,17.20
2019-01-30T04:20:11.193Z,17.80
2019-01-30T04:22:39.897Z,13.40
2019-01-30T04:25:09.408Z,13.37
2019-01-30T04:27:37.982Z,15.77
2019-01-30T04:30:12.881Z,12.97
2019-01-30T04:32:41.460Z,13.27
2019-01-30T04:35:10.092Z,14.37
2019-01-30T04:37:38.691Z,14.90
2019-01-30T04:40:10.321Z,12.17
2019-01-30T04:42:38.834Z,15.50
2019-01-30T04:45:10.697Z,11.50
2019-01-30T04:47:39.216Z,14.83
2019-01-30T04:50:08.129Z,14.97
2019-01-30T04:52:36.717Z,13.97
2019-01-30T04:55:07.616Z,12.80
2019-01-30T04:57:36.128Z,13.07
2019-01-30T05:00:07.742Z,18.43
2019-01-30T05:02:36.289Z,17.07
2019-01-30T05:05:07.709Z,14.10
2019-01-30T05:07:36.294Z,14.33
2019-01-30T05:10:07.903Z,13.33
2019-01-30T05:12:36.494Z,16.70
2019-01-30T05:15:16.897Z,14.57
2019-01-30T05:17:45.401Z,14.07
2019-01-30T05:20:16.008Z,12.93
2019-01-30T05:22:45.184Z,18.97
2019-01-30T05:25:14.584Z,14.43
2019-01-30T05:27:43.247Z,14.17
2019-01-30T05:30:17.196Z,14.40
2019-01-30T05:32:45.713Z,14.77
2019-01-30T05:35:14.998Z,16.17
2019-01-30T05:37:43.656Z,13.30
2019-01-30T05:40:15.070Z,14.33
2019-01-30T05:42:43.654Z,12.97
2019-01-30T05:45:14.861Z,14.63
2019-01-30T05:47:43.523Z,17.07
2019-01-30T05:50:12.830Z,19.03
2019-01-30T05:52:41.461Z,14.63
2019-01-30T05:55:12.450Z,17.10
2019-01-30T05:57:41.025Z,19.73
2019-01-30T06:00:12.669Z,17.73
2019-01-30T06:02:41.183Z,17.93
2019-01-30T06:05:10.017Z,16.10
2019-01-30T06:07:38.578Z,13.43
2019-01-30T06:10:08.919Z,14.97
2019-01-30T06:12:37.917Z,12.23
2019-01-30T06:15:12.476Z,15.73
2019-01-30T06:17:41.042Z,14.97
2019-01-30T06:20:12.694Z,13.37
2019-01-30T06:22:41.186Z,14.37
2019-01-30T06:25:10.166Z,13.17
2019-01-30T06:27:38.718Z,13.60
2019-01-30T06:30:10.401Z,13.53
2019-01-30T06:32:38.960Z,12.90
2019-01-30T06:35:08.002Z,12.53
2019-01-30T06:37:36.557Z,11.07
2019-01-30T06:40:08.142Z,14.47
2019-01-30T06:42:36.693Z,10.50
2019-01-30T06:45:06.742Z,12.17
2019-01-30T06:47:35.306Z,12.97
2019-01-30T06:50:06.008Z,12.17
2019-01-30T06:52:34.533Z,12.87
2019-01-30T06:55:03.057Z,12.00
2019-01-30T06:57:31.609Z,13.23
2019-01-30T07:00:00.330Z,11.43
2019-01-30T07:02:32.414Z,13.00
2019-01-30T07:04:59.290Z,12.70
2019-01-30T07:07:27.789Z,13.57
2019-01-30T07:09:56.310Z,14.60
2019-01-30T07:12:24.876Z,13.37
2019-01-30T07:14:53.456Z,15.43
2019-01-30T07:17:21.953Z,10.63
2019-01-30T07:19:50.538Z,12.23
2019-01-30T07:22:19.105Z,13.87
2019-01-30T07:24:47.689Z,11.27
2019-01-30T07:27:16.266Z,11.20
2019-01-30T07:29:44.846Z,9.97
2019-01-30T07:32:13.406Z,11.33
2019-01-30T07:34:42.056Z,10.27
2019-01-30T07:37:10.549Z,11.80
2019-01-30T07:39:39.392Z,9.07
2019-01-30T07:42:07.955Z,10.50
2019-01-30T07:44:36.532Z,12.63
2019-01-30T07:47:05.153Z,11.90
2019-01-30T07:49:33.735Z,9.87
2019-01-30T07:52:02.308Z,10.27
2019-01-30T07:54:30.888Z,11.13
2019-01-30T07:56:59.449Z,10.30
2019-01-30T07:59:28.021Z,11.93
2019-01-30T08:01:56.501Z,8.83
2019-01-30T08:04:25.314Z,10.30
2019-01-30T08:06:53.877Z,11.13
2019-01-30T08:09:22.378Z,10.07
2019-01-30T08:11:50.877Z,10.93
2019-01-30T08:14:19.454Z,12.30
2019-01-30T08:16:48.177Z,12.27
2019-01-30T08:19:16.695Z,9.20
2019-01-30T08:21:45.349Z,9.73
2019-01-30T08:24:14.445Z,10.83
2019-01-30T08:26:43.220Z,10.53
2019-01-30T08:29:12.067Z,11.53
2019-01-30T08:31:41.076Z,9.43
2019-01-30T08:34:09.721Z,10.37
2019-01-30T08:36:38.229Z,11.33
2019-01-30T08:39:08.337Z,9.60
2019-01-30T08:41:36.909Z,8.57
2019-01-30T08:44:05.525Z,9.97
2019-01-30T08:46:34.092Z,8.63
2019-01-30T08:49:02.646Z,8.80
2019-01-30T08:51:36.573Z,11.23
2019-01-30T08:54:05.470Z,9.63
2019-01-30T08:56:38.868Z,6.90
2019-01-30T08:59:05.958Z,10.57
2019-01-30T09:01:34.632Z,11.13
2019-01-30T09:04:03.285Z,10.90
2019-01-30T09:06:31.798Z,9.20
2019-01-30T09:09:00.357Z,10.47
2019-01-30T09:11:29.392Z,10.43
2019-01-30T09:13:57.950Z,11.83
2019-01-30T09:16:26.534Z,10.90
2019-01-30T09:18:55.095Z,8.07
2019-01-30T09:21:23.606Z,8.53
2019-01-30T09:23:52.162Z,9.93
2019-01-30T09:26:20.742Z,7.80
2019-01-30T09:28:49.225Z,9.97
2019-01-30T09:31:17.984Z,8.87
2019-01-30T09:33:46.541Z,7.53
2019-01-30T09:36:15.082Z,11.13
2019-01-30T09:38:44.177Z,10.00
2019-01-30T09:41:12.771Z,8.50
2019-01-30T09:43:41.498Z,8.47
2019-01-30T09:46:10.010Z,12.60
2019-01-30T09:48:38.583Z,8.37
2019-01-30T09:51:07.150Z,8.97
2019-01-30T09:53:35.712Z,10.70
2019-01-30T09:56:04.426Z,8.57
2019-01-30T09:58:33.035Z,9.37
2019-01-30T10:01:01.643Z,11.37
2019-01-30T10:03:36.049Z,8.33
2019-01-30T10:06:00.438Z,10.53
2019-01-30T10:08:28.998Z,8.97
2019-01-30T10:10:57.502Z,9.60
2019-01-30T10:13:25.997Z,10.67
2019-01-30T10:15:54.485Z,8.30
2019-01-30T10:18:23.061Z,8.50
2019-01-30T10:20:51.613Z,9.00
2019-01-30T10:23:20.190Z,9.00
2019-01-30T10:25:48.686Z,12.20
2019-01-30T10:28:17.330Z,8.23
2019-01-30T10:30:47.265Z,12.40
2019-01-30T10:33:15.845Z,10.03
2019-01-30T10:35:44.463Z,8.97
2019-01-30T10:38:13.111Z,8.40
2019-01-30T10:40:41.775Z,8.50
2019-01-30T10:43:10.498Z,9.00
2019-01-30T10:45:39.119Z,9.17
2019-01-30T10:48:07.834Z,8.97
2019-01-30T10:50:36.486Z,7.93
2019-01-30T10:53:05.397Z,9.17
2019-01-30T10:55:35.907Z,7.20
2019-01-30T10:58:07.394Z,11.67
2019-01-30T11:00:38.859Z,8.43
2019-01-30T11:03:08.466Z,10.00
2019-01-30T11:05:37.094Z,9.93
2019-01-30T11:08:06.422Z,13.17
2019-01-30T11:10:35.044Z,9.57
2019-01-30T11:15:38.416Z,10.30
2019-01-30T11:18:10.142Z,11.53
2019-01-30T11:20:38.953Z,12.13
2019-01-30T11:23:07.672Z,11.60
2019-01-30T11:25:45.067Z,15.27
2019-01-30T11:28:13.744Z,12.17
2019-01-30T11:30:42.326Z,15.13
2019-01-30T11:33:11.977Z,12.67
2019-01-30T11:35:40.601Z,10.37
2019-01-30T11:38:09.389Z,12.07
2019-01-30T11:40:38.092Z,12.13
2019-01-30T11:43:06.736Z,14.70
2019-01-30T11:45:40.129Z,12.03
2019-01-30T11:48:08.879Z,10.97
2019-01-30T11:50:38.083Z,13.70
2019-01-30T11:53:06.796Z,11.17
2019-01-30T11:55:35.542Z,14.60
2019-01-30T11:58:04.968Z,12.53
2019-01-30T12:00:48.150Z,10.97
2019-01-30T12:03:16.726Z,11.17
2019-01-30T12:05:45.570Z,10.83
2019-01-30T12:08:15.143Z,12.77
2019-01-30T12:10:43.842Z,13.80
2019-01-30T12:13:12.351Z,13.87
2019-01-30T12:15:40.932Z,13.03
2019-01-30T12:18:09.640Z,12.33
2019-01-30T12:20:38.133Z,14.13
2019-01-30T12:23:06.845Z,11.00
2019-01-30T12:25:35.326Z,12.83
2019-01-30T12:28:03.975Z,12.13
2019-01-30T12:30:32.532Z,10.87
2019-01-30T12:33:01.115Z,11.50
2019-01-30T12:35:29.826Z,13.07
2019-01-30T12:37:58.404Z,13.53
2019-01-30T12:40:27.228Z,11.70
2019-01-30T12:42:55.874Z,9.93
2019-01-30T12:45:32.392Z,14.60
2019-01-30T12:48:01.149Z,12.33
2019-01-30T12:50:30.348Z,12.73
2019-01-30T12:52:58.926Z,10.90
2019-01-30T12:55:29.542Z,12.93
2019-01-30T12:57:58.526Z,12.10
2019-01-30T13:00:29.909Z,11.63
2019-01-30T13:02:58.659Z,13.07
2019-01-30T13:05:28.156Z,15.97
2019-01-30T13:07:56.709Z,11.43
2019-01-30T13:10:25.291Z,14.60
2019-01-30T13:12:54.192Z,11.60
2019-01-30T13:15:25.015Z,13.27
2019-01-30T13:17:53.633Z,10.77
2019-01-30T13:20:22.956Z,11.77
2019-01-30T13:22:51.528Z,13.37
2019-01-30T13:25:25.467Z,14.20
2019-01-30T13:27:54.172Z,14.80
2019-01-30T13:30:34.698Z,13.37
2019-01-30T13:33:03.797Z,14.53
2019-01-30T13:35:33.701Z,11.10
2019-01-30T13:38:02.339Z,13.67
2019-01-30T13:40:33.259Z,12.53
2019-01-30T13:43:01.834Z,10.93
2019-01-30T13:45:31.404Z,13.97
2019-01-30T13:48:00.131Z,15.50
2019-01-30T13:50:29.553Z,13.10
2019-01-30T13:52:58.373Z,15.43
2019-01-30T13:55:27.198Z,14.60
2019-01-30T13:57:55.834Z,10.97
2019-01-30T14:00:30.450Z,16.73
2019-01-30T14:03:00.129Z,14.97
2019-01-30T14:05:28.896Z,13.63
2019-01-30T14:07:57.888Z,14.77
2019-01-30T14:10:27.353Z,12.90
2019-01-30T14:12:55.994Z,13.60
2019-01-30T14:15:27.351Z,13.23
2019-01-30T14:17:55.914Z,15.30
2019-01-30T14:20:24.534Z,12.97
2019-01-30T14:22:53.251Z,13.50
2019-01-30T14:25:22.017Z,12.57
2019-01-30T14:27:50.682Z,17.00
2019-01-30T14:30:25.315Z,13.87
2019-01-30T14:32:55.529Z,13.43
2019-01-30T14:35:25.684Z,15.10
2019-01-30T14:37:54.325Z,14.53
2019-01-30T14:40:23.184Z,12.63
2019-01-30T14:42:51.997Z,13.90
2019-01-30T14:45:20.909Z,11.70
2019-01-30T14:47:50.636Z,13.57
2019-01-30T14:50:26.958Z,14.63
2019-01-30T14:52:55.491Z,14.83
2019-01-30T14:55:24.422Z,15.07
2019-01-30T14:57:54.012Z,14.87
2019-01-30T15:00:30.555Z,13.40
2019-01-30T15:02:59.262Z,15.00
2019-01-30T15:05:28.767Z,17.30
2019-01-30T15:07:57.485Z,16.30
2019-01-30T15:10:28.051Z,15.30
2019-01-30T15:12:56.643Z,14.77
2019-01-30T15:15:32.314Z,14.97
2019-01-30T15:18:00.962Z,13.03
2019-01-30T15:20:31.552Z,15.87
2019-01-30T15:23:00.286Z,14.30
2019-01-30T15:25:29.035Z,14.83
2019-01-30T15:27:57.943Z,15.33
2019-01-30T15:30:29.435Z,14.23
2019-01-30T15:32:58.071Z,14.93
2019-01-30T15:35:33.187Z,16.23
2019-01-30T15:37:57.000Z,18.50
2019-01-30T15:40:27.550Z,17.60
2019-01-30T15:42:56.039Z,15.37
2019-01-30T15:45:25.359Z,16.00
2019-01-30T15:47:54.065Z,18.07
2019-01-30T15:50:27.573Z,17.97
2019-01-30T15:53:11.880Z,15.27
2019-01-30T15:55:40.514Z,19.17
2019-01-30T15:58:10.926Z,18.17
2019-01-30T16:00:51.116Z,18.37
2019-01-30T16:03:19.682Z,18.43
2019-01-30T16:05:48.343Z,15.23
2019-01-30T16:08:18.827Z,16.33
2019-01-30T16:10:48.785Z,15.90
2019-01-30T16:13:17.354Z,18.80
2019-01-30T16:15:49.016Z,19.27
2019-01-30T16:18:17.643Z,18.23
2019-01-30T16:20:46.234Z,21.57
2019-01-30T16:23:14.931Z,19.23
2019-01-30T16:25:43.498Z,19.23
2019-01-30T16:28:12.086Z,21.07
2019-01-30T16:30:42.381Z,20.17
2019-01-30T16:33:10.960Z,19.83
2019-01-30T16:35:39.445Z,19.77
2019-01-30T16:38:08.233Z,19.67
2019-01-30T16:40:36.793Z,19.77
2019-01-30T16:43:06.717Z,24.30
2019-01-30T16:45:35.288Z,22.23
2019-01-30T16:48:04.538Z,24.57
2019-01-30T16:50:34.399Z,20.40
2019-01-30T16:53:03.069Z,19.20
2019-01-30T16:55:31.642Z,19.80
2019-01-30T16:58:00.161Z,17.27
2019-01-30T17:00:37.647Z,20.60
2019-01-30T17:03:08.372Z,19.00
2019-01-30T17:05:37.175Z,22.00
2019-01-30T17:08:06.641Z,22.17
2019-01-30T17:10:36.324Z,21.07
2019-01-30T17:13:05.480Z,23.30
2019-01-30T17:15:40.012Z,20.57
2019-01-30T17:18:11.047Z,22.90
2019-01-30T17:20:41.143Z,91.20
2019-01-30T17:23:09.729Z,50.47
2019-01-30T17:25:38.402Z,63.23
2019-01-30T17:28:06.978Z,26.77
2019-01-30T17:30:44.660Z,23.00
2019-01-30T17:33:13.309Z,19.23
2019-01-30T17:35:42.418Z,21.87
2019-01-30T17:38:11.150Z,18.60
2019-01-30T17:40:39.950Z,19.20
2019-01-30T17:43:08.537Z,22.63
2019-01-30T17:45:37.172Z,24.87
2019-01-30T17:48:06.822Z,22.07
2019-01-30T17:50:35.389Z,24.17
2019-01-30T17:53:04.218Z,21.80
2019-01-30T17:55:32.783Z,24.73
2019-01-30T17:58:01.365Z,24.33
2019-01-30T18:00:48.218Z,27.70
2019-01-30T18:03:16.865Z,22.83
2019-01-30T18:05:45.938Z,22.67
2019-01-30T18:08:14.525Z,22.20
2019-01-30T18:10:43.087Z,26.47
2019-01-30T18:13:11.730Z,21.60
2019-01-30T18:15:40.434Z,26.13
2019-01-30T18:18:09.080Z,25.90
2019-01-30T18:20:37.715Z,24.33
2019-01-30T18:23:06.299Z,25.00
2019-01-30T18:25:34.934Z,24.30
2019-01-30T18:28:03.665Z,25.10
2019-01-30T18:30:32.152Z,23.27
2019-01-30T18:33:00.719Z,24.63
2019-01-30T18:35:29.317Z,23.83
2019-01-30T18:37:57.894Z,28.60
2019-01-30T18:40:28.583Z,26.63
2019-01-30T18:42:57.088Z,26.27
2019-01-30T18:45:26.986Z,26.97
2019-01-30T18:47:57.272Z,26.57
2019-01-30T18:50:29.777Z,26.20
2019-01-30T18:52:58.506Z,28.47
2019-01-30T18:55:26.999Z,26.90
2019-01-30T18:57:56.116Z,29.07
2019-01-30T19:00:27.033Z,29.60
2019-01-30T19:02:57.073Z,33.70
2019-01-30T19:05:25.801Z,29.90
2019-01-30T19:07:54.289Z,28.40
2019-01-30T19:10:22.863Z,30.27
2019-01-30T19:12:51.422Z,33.40
2019-01-30T19:15:22.418Z,31.77
2019-01-30T19:17:51.196Z,30.67
2019-01-30T19:20:22.788Z,32.37
2019-01-30T19:22:51.376Z,32.80
2019-01-30T19:25:20.002Z,33.10
2019-01-30T19:27:48.660Z,35.50
2019-01-30T19:30:20.066Z,32.47
2019-01-30T19:32:48.703Z,33.80
2019-01-30T19:35:17.772Z,37.87
2019-01-30T19:37:46.413Z,34.73
2019-01-30T19:40:15.922Z,33.03
2019-01-30T19:42:44.474Z,39.90
2019-01-30T19:45:15.980Z,37.07
2019-01-30T19:47:44.541Z,36.63
2019-01-30T19:50:16.069Z,34.27
2019-01-30T19:52:44.571Z,36.17
2019-01-30T19:55:13.231Z,36.33
2019-01-30T19:57:41.801Z,34.53
2019-01-30T20:00:13.469Z,36.47
2019-01-30T20:02:42.104Z,35.40
2019-01-30T20:05:12.823Z,36.20
2019-01-30T20:07:41.516Z,37.30
2019-01-30T20:10:16.472Z,39.17
2019-01-30T20:12:45.173Z,36.93
2019-01-30T20:15:13.943Z,37.50
2019-01-30T20:17:42.658Z,40.70
2019-01-30T20:20:13.870Z,40.27
2019-01-30T20:22:42.497Z,42.20
2019-01-30T20:25:16.866Z,44.10
2019-01-30T20:27:45.434Z,43.37
2019-01-30T20:30:16.980Z,47.33
2019-01-30T20:32:45.622Z,47.07
2019-01-30T20:35:14.354Z,43.37
2019-01-30T20:37:42.994Z,44.20
2019-01-30T20:40:14.616Z,43.90
2019-01-30T20:42:43.246Z,49.60
2019-01-30T20:45:13.605Z,50.13
2019-01-30T20:47:42.181Z,44.23
2019-01-30T20:50:18.770Z,44.17
2019-01-30T20:52:47.331Z,46.67
2019-01-30T20:55:17.260Z,49.80
2019-01-30T20:57:45.899Z,48.67
2019-01-30T21:00:23.033Z,46.60
2019-01-30T21:02:51.538Z,49.10
2019-01-30T21:05:20.126Z,47.40
2019-01-30T21:07:48.634Z,48.47
2019-01-30T21:10:19.997Z,47.47
2019-01-30T21:12:48.490Z,47.57
2019-01-30T21:15:17.404Z,48.47
2019-01-30T21:17:45.962Z,51.57
2019-01-30T21:20:16.872Z,47.23
2019-01-30T21:22:45.673Z,48.80
2019-01-30T21:25:18.933Z,52.50
2019-01-30T21:27:47.753Z,47.47
2019-01-30T21:30:22.357Z,48.57
2019-01-30T21:32:51.034Z,50.17
2019-01-30T21:35:19.601Z,48.53
2019-01-30T21:37:49.256Z,47.17
2019-01-30T21:40:19.086Z,54.17
2019-01-30T21:42:48.431Z,47.90
2019-01-30T21:45:18.933Z,49.57
2019-01-30T21:47:47.509Z,53.87
2019-01-30T21:50:16.232Z,51.57
2019-01-30T21:52:44.814Z,49.57
2019-01-30T21:55:15.978Z,52.27
2019-01-30T21:57:44.553Z,50.17
2019-01-30T22:00:18.870Z,48.50
2019-01-30T22:02:47.458Z,48.07
2019-01-30T22:05:16.493Z,52.00
2019-01-30T22:07:45.138Z,50.53
2019-01-30T22:10:16.647Z,48.63
2019-01-30T22:12:45.229Z,50.00
2019-01-30T22:15:16.037Z,50.23
2019-01-30T22:17:44.694Z,51.43
2019-01-30T22:20:16.326Z,47.63
2019-01-30T22:22:44.977Z,51.33
2019-01-30T22:25:20.509Z,50.27
2019-01-30T22:27:46.174Z,50.20
2019-01-30T22:30:20.714Z,47.63
2019-01-30T22:32:49.224Z,50.03
2019-01-30T22:35:17.722Z,49.70
2019-01-30T22:37:47.485Z,51.47
2019-01-30T22:40:16.203Z,55.20
2019-01-30T22:42:44.923Z,53.67
2019-01-30T22:45:18.137Z,51.37
2019-01-30T22:47:46.865Z,50.97
2019-01-30T22:50:17.198Z,55.13
2019-01-30T22:52:46.017Z,52.03
2019-01-30T22:55:16.355Z,51.60
2019-01-30T22:57:44.937Z,55.23
2019-01-30T23:00:50.503Z,53.33
2019-01-30T23:03:21.453Z,48.67
2019-01-30T23:06:12.419Z,52.20
2019-01-30T23:09:17.229Z,52.93
2019-01-30T23:12:05.251Z,50.00
2019-01-30T23:14:36.322Z,54.63
2019-01-30T23:17:13.840Z,55.93
2019-01-30T23:19:48.257Z,56.83
2019-01-30T23:22:37.672Z,54.83
2019-01-30T23:25:44.608Z,55.20
2019-01-30T23:28:24.952Z,53.40
2019-01-30T23:31:29.561Z,54.37
2019-01-30T23:34:06.776Z,54.33
2019-01-30T23:36:43.862Z,58.40
2019-01-30T23:39:15.908Z,56.20
2019-01-30T23:42:02.101Z,54.33
2019-01-30T23:44:33.673Z,58.17
2019-01-30T23:47:08.158Z,53.07
2019-01-30T23:49:51.644Z,52.43
2019-01-30T23:52:34.933Z,52.60
2019-01-30T23:55:26.049Z,46.57
2019-01-30T23:57:57.634Z,47.93
